Skip Navigation Links Skip Navigation Links

Current Weather

Fairfield Muni, Fairfield, Iowa

For information only: do not use for flight planning or navigation.
Latest weather
Observation time Friday, January 28, 2022 12:15 AM CST
Local time Friday, January 28, 2022 12:30 AM CST
Flight conditions Marginal Visual Meteorological Conditions
Winds
Wind direction Northwest (310°)
Wind speed 16 mph
Visibility 10 mi.
Sky condition
Ceiling 2,700 ft. overcast
Cloud layer overcast 2,700 ft.
Temperature 19°F
Dewpoint 14°F
Altimeter 30.33 in.Hg
Derived measurements
Relative humidity 79%
Wind chill 5°F
Density altitude -2358 ft.
Remarks
Fully automated report.
METAR KFFL 280615Z AUTO 31014KT 10SM OVC027 M07/M10 A3033 RMK A01

Settings

Location code

InnerDrive.Weather 4.0.6770.0 Release CLR 4.0.30319.42000
Copyright ©2018 Inner Drive Technology. All rights reserved. Portions Copyright ©1986-2018 David Braverman.

Find weather

Site navigation


Skip Navigation Links

Place info

Page info

PayPal - The safer, easier way to pay online!

Return home.

Copyright ©2022 Inner Drive Technology. Purveyors of fine, hand-crafted computer software. Page printed 2022-01-28T06:30:21 UTC.